Tweets

Valley Met

METAR
EGOV 271750Z AUTO 19009KT 9999 SCT034/// 08/06 Q1017
TAF
TAF EGOV 271311Z 2715/2718 20008KT 9999 FEW020

Gallery

Expand all | Collapse all


Chris’s Daily Photo

Subscribe to:

FourFax Stats

  • Total Stats
    • 311 Posts
    • 158 Comments
    • 48 Comment Posters
    • 28 Links
    • 7 Post Categories
    • 4 Link Categories

Archives